sensor_id;sensor_type;location;lat;lon;timestamp;P1;durP1;ratioP1;P2;durP2;ratioP2
77466;SDS011;66564;42.482;25.548;2023-05-27T00:01:43;6.60;;;5.05;;
77466;SDS011;66564;42.482;25.548;2023-05-27T00:04:09;8.10;;;5.43;;
77466;SDS011;66564;42.482;25.548;2023-05-27T00:06:34;10.38;;;5.60;;
77466;SDS011;66564;42.482;25.548;2023-05-27T00:09:01;8.30;;;5.50;;
77466;SDS011;66564;42.482;25.548;2023-05-27T00:11:26;13.38;;;5.80;;
77466;SDS011;66564;42.482;25.548;2023-05-27T00:13:52;8.45;;;5.13;;
77466;SDS011;66564;42.482;25.548;2023-05-27T00:16:17;7.63;;;5.53;;
77466;SDS011;66564;42.482;25.548;2023-05-27T00:18:45;7.32;;;5.57;;
77466;SDS011;66564;42.482;25.548;2023-05-27T00:21:12;11.13;;;6.20;;
77466;SDS011;66564;42.482;25.548;2023-05-27T00:23:38;10.45;;;5.95;;
77466;SDS011;66564;42.482;25.548;2023-05-27T00:26:04;10.05;;;6.07;;
77466;SDS011;66564;42.482;25.548;2023-05-27T00:28:29;9.63;;;5.82;;
77466;SDS011;66564;42.482;25.548;2023-05-27T00:30:56;8.82;;;6.30;;
77466;SDS011;66564;42.482;25.548;2023-05-27T00:33:22;8.82;;;6.72;;
77466;SDS011;66564;42.482;25.548;2023-05-27T00:35:48;10.98;;;7.20;;
77466;SDS011;66564;42.482;25.548;2023-05-27T00:38:14;11.73;;;7.30;;
77466;SDS011;66564;42.482;25.548;2023-05-27T00:40:39;13.30;;;6.38;;
77466;SDS011;66564;42.482;25.548;2023-05-27T00:43:05;18.30;;;7.97;;
77466;SDS011;66564;42.482;25.548;2023-05-27T00:45:31;12.52;;;7.53;;
77466;SDS011;66564;42.482;25.548;2023-05-27T00:47:57;8.32;;;6.53;;
77466;SDS011;66564;42.482;25.548;2023-05-27T00:50:27;11.55;;;7.85;;
77466;SDS011;66564;42.482;25.548;2023-05-27T00:52:52;8.85;;;6.82;;
77466;SDS011;66564;42.482;25.548;2023-05-27T00:55:21;8.95;;;6.80;;
77466;SDS011;66564;42.482;25.548;2023-05-27T00:57:47;14.88;;;7.75;;
77466;SDS011;66564;42.482;25.548;2023-05-27T01:00:13;10.63;;;7.30;;
77466;SDS011;66564;42.482;25.548;2023-05-27T01:02:39;13.80;;;7.20;;
77466;SDS011;66564;42.482;25.548;2023-05-27T01:05:07;12.30;;;7.47;;
77466;SDS011;66564;42.482;25.548;2023-05-27T01:10:50;12.63;;;7.80;;
77466;SDS011;66564;42.482;25.548;2023-05-27T01:13:27;7.88;;;6.35;;
77466;SDS011;66564;42.482;25.548;2023-05-27T01:16:01;10.73;;;6.78;;
77466;SDS011;66564;42.482;25.548;2023-05-27T01:18:27;12.73;;;8.05;;
77466;SDS011;66564;42.482;25.548;2023-05-27T01:21:00;11.55;;;6.97;;
77466;SDS011;66564;42.482;25.548;2023-05-27T01:23:30;10.32;;;6.93;;
77466;SDS011;66564;42.482;25.548;2023-05-27T01:25:56;10.52;;;7.10;;
77466;SDS011;66564;42.482;25.548;2023-05-27T01:28:22;9.02;;;6.68;;
77466;SDS011;66564;42.482;25.548;2023-05-27T01:30:49;11.05;;;7.00;;
77466;SDS011;66564;42.482;25.548;2023-05-27T01:33:20;9.80;;;7.00;;
77466;SDS011;66564;42.482;25.548;2023-05-27T01:35:54;11.90;;;6.75;;
77466;SDS011;66564;42.482;25.548;2023-05-27T01:38:27;12.35;;;7.38;;
77466;SDS011;66564;42.482;25.548;2023-05-27T01:40:53;9.68;;;6.18;;
77466;SDS011;66564;42.482;25.548;2023-05-27T01:43:20;9.13;;;7.07;;
77466;SDS011;66564;42.482;25.548;2023-05-27T01:45:46;8.15;;;5.82;;
77466;SDS011;66564;42.482;25.548;2023-05-27T01:48:12;11.27;;;6.28;;
77466;SDS011;66564;42.482;25.548;2023-05-27T01:50:38;9.20;;;5.68;;
77466;SDS011;66564;42.482;25.548;2023-05-27T01:53:04;10.50;;;5.90;;
77466;SDS011;66564;42.482;25.548;2023-05-27T01:55:30;9.25;;;6.32;;
77466;SDS011;66564;42.482;25.548;2023-05-27T01:57:56;8.48;;;5.53;;
77466;SDS011;66564;42.482;25.548;2023-05-27T02:00:22;9.38;;;5.45;;
77466;SDS011;66564;42.482;25.548;2023-05-27T02:02:48;6.55;;;5.40;;
77466;SDS011;66564;42.482;25.548;2023-05-27T02:05:13;7.68;;;5.78;;
77466;SDS011;66564;42.482;25.548;2023-05-27T02:07:39;9.18;;;6.20;;
77466;SDS011;66564;42.482;25.548;2023-05-27T02:10:04;7.20;;;5.55;;
77466;SDS011;66564;42.482;25.548;2023-05-27T02:12:30;11.18;;;6.07;;
77466;SDS011;66564;42.482;25.548;2023-05-27T02:14:56;10.27;;;5.93;;
77466;SDS011;66564;42.482;25.548;2023-05-27T02:17:21;8.90;;;5.65;;
77466;SDS011;66564;42.482;25.548;2023-05-27T02:19:49;9.63;;;5.35;;
77466;SDS011;66564;42.482;25.548;2023-05-27T02:22:15;10.15;;;6.30;;
77466;SDS011;66564;42.482;25.548;2023-05-27T02:24:41;9.10;;;5.53;;
77466;SDS011;66564;42.482;25.548;2023-05-27T02:27:07;9.75;;;5.55;;
77466;SDS011;66564;42.482;25.548;2023-05-27T02:29:33;14.13;;;5.95;;
77466;SDS011;66564;42.482;25.548;2023-05-27T02:31:58;11.40;;;5.88;;
77466;SDS011;66564;42.482;25.548;2023-05-27T02:34:24;8.50;;;5.50;;
77466;SDS011;66564;42.482;25.548;2023-05-27T02:36:50;9.10;;;5.80;;
77466;SDS011;66564;42.482;25.548;2023-05-27T02:39:15;7.22;;;5.55;;
77466;SDS011;66564;42.482;25.548;2023-05-27T02:41:41;9.90;;;5.75;;
77466;SDS011;66564;42.482;25.548;2023-05-27T02:44:07;8.07;;;5.50;;
77466;SDS011;66564;42.482;25.548;2023-05-27T02:46:32;8.48;;;6.32;;
77466;SDS011;66564;42.482;25.548;2023-05-27T02:48:58;8.43;;;5.32;;
77466;SDS011;66564;42.482;25.548;2023-05-27T02:51:23;15.70;;;6.20;;
77466;SDS011;66564;42.482;25.548;2023-05-27T02:53:52;8.45;;;5.95;;
77466;SDS011;66564;42.482;25.548;2023-05-27T02:56:17;8.35;;;5.90;;
77466;SDS011;66564;42.482;25.548;2023-05-27T02:58:43;10.63;;;6.43;;
77466;SDS011;66564;42.482;25.548;2023-05-27T03:01:08;8.52;;;5.57;;
77466;SDS011;66564;42.482;25.548;2023-05-27T03:03:34;12.20;;;6.93;;
77466;SDS011;66564;42.482;25.548;2023-05-27T03:05:59;8.45;;;5.70;;
77466;SDS011;66564;42.482;25.548;2023-05-27T03:08:25;8.30;;;5.22;;
77466;SDS011;66564;42.482;25.548;2023-05-27T03:10:51;7.20;;;5.43;;
77466;SDS011;66564;42.482;25.548;2023-05-27T03:13:16;7.10;;;4.90;;
77466;SDS011;66564;42.482;25.548;2023-05-27T03:15:42;6.80;;;4.97;;
77466;SDS011;66564;42.482;25.548;2023-05-27T03:18:07;10.20;;;5.78;;
77466;SDS011;66564;42.482;25.548;2023-05-27T03:20:33;9.98;;;5.13;;
77466;SDS011;66564;42.482;25.548;2023-05-27T03:22:58;13.75;;;5.57;;
77466;SDS011;66564;42.482;25.548;2023-05-27T03:25:24;8.88;;;5.57;;
77466;SDS011;66564;42.482;25.548;2023-05-27T03:27:50;7.65;;;4.95;;
77466;SDS011;66564;42.482;25.548;2023-05-27T03:30:16;7.57;;;5.60;;
77466;SDS011;66564;42.482;25.548;2023-05-27T03:32:41;11.48;;;5.75;;
77466;SDS011;66564;42.482;25.548;2023-05-27T03:35:07;13.23;;;6.28;;
77466;SDS011;66564;42.482;25.548;2023-05-27T03:37:32;8.82;;;5.18;;
77466;SDS011;66564;42.482;25.548;2023-05-27T03:39:58;7.55;;;4.90;;
77466;SDS011;66564;42.482;25.548;2023-05-27T03:42:23;8.55;;;4.97;;
77466;SDS011;66564;42.482;25.548;2023-05-27T03:44:49;12.32;;;5.95;;
77466;SDS011;66564;42.482;25.548;2023-05-27T03:47:15;9.13;;;5.18;;
77466;SDS011;66564;42.482;25.548;2023-05-27T03:49:45;9.35;;;5.60;;
77466;SDS011;66564;42.482;25.548;2023-05-27T03:52:11;6.95;;;5.10;;
77466;SDS011;66564;42.482;25.548;2023-05-27T03:54:36;7.30;;;4.93;;
77466;SDS011;66564;42.482;25.548;2023-05-27T03:57:02;9.57;;;6.18;;
77466;SDS011;66564;42.482;25.548;2023-05-27T03:59:27;6.65;;;5.05;;
77466;SDS011;66564;42.482;25.548;2023-05-27T04:01:53;6.88;;;5.18;;
77466;SDS011;66564;42.482;25.548;2023-05-27T04:04:18;9.23;;;5.03;;
77466;SDS011;66564;42.482;25.548;2023-05-27T04:06:44;7.80;;;5.10;;
77466;SDS011;66564;42.482;25.548;2023-05-27T04:09:09;6.20;;;5.10;;
77466;SDS011;66564;42.482;25.548;2023-05-27T04:11:35;7.22;;;5.45;;
77466;SDS011;66564;42.482;25.548;2023-05-27T04:14:00;7.88;;;5.25;;
77466;SDS011;66564;42.482;25.548;2023-05-27T04:16:26;8.15;;;5.57;;
77466;SDS011;66564;42.482;25.548;2023-05-27T04:18:51;7.32;;;5.45;;
77466;SDS011;66564;42.482;25.548;2023-05-27T04:21:17;7.75;;;5.35;;
77466;SDS011;66564;42.482;25.548;2023-05-27T04:23:44;10.50;;;5.75;;
77466;SDS011;66564;42.482;25.548;2023-05-27T04:26:09;7.97;;;5.00;;
77466;SDS011;66564;42.482;25.548;2023-05-27T04:28:35;9.70;;;5.25;;
77466;SDS011;66564;42.482;25.548;2023-05-27T04:31:00;7.80;;;5.22;;
77466;SDS011;66564;42.482;25.548;2023-05-27T04:33:26;9.00;;;4.88;;
77466;SDS011;66564;42.482;25.548;2023-05-27T04:35:52;5.65;;;4.88;;
77466;SDS011;66564;42.482;25.548;2023-05-27T04:38:22;7.50;;;5.18;;
77466;SDS011;66564;42.482;25.548;2023-05-27T04:40:50;9.93;;;5.75;;
77466;SDS011;66564;42.482;25.548;2023-05-27T04:43:18;8.65;;;5.55;;
77466;SDS011;66564;42.482;25.548;2023-05-27T04:45:44;7.60;;;4.53;;
77466;SDS011;66564;42.482;25.548;2023-05-27T04:48:10;12.45;;;5.25;;
77466;SDS011;66564;42.482;25.548;2023-05-27T04:50:35;8.85;;;5.30;;
77466;SDS011;66564;42.482;25.548;2023-05-27T04:53:01;10.52;;;5.13;;
77466;SDS011;66564;42.482;25.548;2023-05-27T04:55:27;11.70;;;5.68;;
77466;SDS011;66564;42.482;25.548;2023-05-27T04:57:53;12.93;;;5.13;;
77466;SDS011;66564;42.482;25.548;2023-05-27T05:00:19;7.22;;;5.35;;
77466;SDS011;66564;42.482;25.548;2023-05-27T05:02:49;10.68;;;4.65;;
77466;SDS011;66564;42.482;25.548;2023-05-27T05:05:14;6.88;;;5.13;;
77466;SDS011;66564;42.482;25.548;2023-05-27T05:07:40;7.88;;;5.50;;
77466;SDS011;66564;42.482;25.548;2023-05-27T05:10:07;6.60;;;4.47;;
77466;SDS011;66564;42.482;25.548;2023-05-27T05:12:33;9.02;;;4.95;;
77466;SDS011;66564;42.482;25.548;2023-05-27T05:14:59;8.38;;;4.40;;
77466;SDS011;66564;42.482;25.548;2023-05-27T05:17:25;7.50;;;4.82;;
77466;SDS011;66564;42.482;25.548;2023-05-27T05:19:51;6.18;;;4.60;;
77466;SDS011;66564;42.482;25.548;2023-05-27T05:22:17;9.52;;;4.70;;
77466;SDS011;66564;42.482;25.548;2023-05-27T05:24:51;7.13;;;4.63;;
77466;SDS011;66564;42.482;25.548;2023-05-27T05:27:16;7.55;;;4.13;;
77466;SDS011;66564;42.482;25.548;2023-05-27T05:29:42;5.35;;;4.35;;
77466;SDS011;66564;42.482;25.548;2023-05-27T05:32:11;5.38;;;4.18;;
77466;SDS011;66564;42.482;25.548;2023-05-27T05:34:38;7.65;;;4.30;;
77466;SDS011;66564;42.482;25.548;2023-05-27T05:37:04;7.35;;;4.95;;
77466;SDS011;66564;42.482;25.548;2023-05-27T05:39:30;11.40;;;5.20;;
77466;SDS011;66564;42.482;25.548;2023-05-27T05:41:56;9.95;;;4.75;;
77466;SDS011;66564;42.482;25.548;2023-05-27T05:44:22;8.43;;;5.25;;
77466;SDS011;66564;42.482;25.548;2023-05-27T05:46:49;12.85;;;5.00;;
77466;SDS011;66564;42.482;25.548;2023-05-27T05:49:14;8.27;;;4.90;;
77466;SDS011;66564;42.482;25.548;2023-05-27T05:51:40;11.73;;;5.05;;
77466;SDS011;66564;42.482;25.548;2023-05-27T05:54:11;12.90;;;4.55;;
77466;SDS011;66564;42.482;25.548;2023-05-27T05:56:37;7.55;;;5.03;;
77466;SDS011;66564;42.482;25.548;2023-05-27T05:59:02;8.07;;;5.03;;
77466;SDS011;66564;42.482;25.548;2023-05-27T06:01:28;6.85;;;5.03;;
77466;SDS011;66564;42.482;25.548;2023-05-27T06:03:54;8.90;;;4.57;;
77466;SDS011;66564;42.482;25.548;2023-05-27T06:06:20;8.02;;;5.43;;
77466;SDS011;66564;42.482;25.548;2023-05-27T06:08:46;9.32;;;5.05;;
77466;SDS011;66564;42.482;25.548;2023-05-27T06:11:11;8.88;;;5.03;;
77466;SDS011;66564;42.482;25.548;2023-05-27T06:13:37;8.40;;;5.72;;
77466;SDS011;66564;42.482;25.548;2023-05-27T06:16:06;7.80;;;5.47;;
77466;SDS011;66564;42.482;25.548;2023-05-27T06:18:32;8.10;;;5.13;;
77466;SDS011;66564;42.482;25.548;2023-05-27T06:20:57;6.13;;;5.13;;
77466;SDS011;66564;42.482;25.548;2023-05-27T06:23:23;8.85;;;5.25;;
77466;SDS011;66564;42.482;25.548;2023-05-27T06:25:51;9.57;;;5.00;;
77466;SDS011;66564;42.482;25.548;2023-05-27T06:28:16;7.22;;;5.40;;
77466;SDS011;66564;42.482;25.548;2023-05-27T06:30:42;7.28;;;4.88;;
77466;SDS011;66564;42.482;25.548;2023-05-27T06:33:08;7.60;;;5.00;;
77466;SDS011;66564;42.482;25.548;2023-05-27T06:35:33;6.78;;;5.13;;
77466;SDS011;66564;42.482;25.548;2023-05-27T06:38:00;6.65;;;5.10;;
77466;SDS011;66564;42.482;25.548;2023-05-27T06:40:26;7.03;;;5.15;;
77466;SDS011;66564;42.482;25.548;2023-05-27T06:42:52;9.52;;;5.88;;
77466;SDS011;66564;42.482;25.548;2023-05-27T06:45:19;10.27;;;5.35;;
77466;SDS011;66564;42.482;25.548;2023-05-27T06:47:44;9.15;;;5.63;;
77466;SDS011;66564;42.482;25.548;2023-05-27T06:52:57;8.52;;;5.45;;
77466;SDS011;66564;42.482;25.548;2023-05-27T06:55:23;12.77;;;5.82;;
77466;SDS011;66564;42.482;25.548;2023-05-27T06:57:49;8.80;;;5.45;;
77466;SDS011;66564;42.482;25.548;2023-05-27T07:00:15;9.27;;;5.35;;
77466;SDS011;66564;42.482;25.548;2023-05-27T07:02:41;8.63;;;5.35;;
77466;SDS011;66564;42.482;25.548;2023-05-27T07:05:06;9.48;;;6.03;;
77466;SDS011;66564;42.482;25.548;2023-05-27T07:07:32;8.40;;;5.43;;
77466;SDS011;66564;42.482;25.548;2023-05-27T07:09:58;19.35;;;6.38;;
77466;SDS011;66564;42.482;25.548;2023-05-27T07:12:23;7.90;;;5.43;;
77466;SDS011;66564;42.482;25.548;2023-05-27T07:14:49;123.88;;;50.83;;
77466;SDS011;66564;42.482;25.548;2023-05-27T07:17:15;26.85;;;19.38;;
77466;SDS011;66564;42.482;25.548;2023-05-27T07:19:41;43.38;;;25.73;;
77466;SDS011;66564;42.482;25.548;2023-05-27T07:22:07;210.70;;;85.70;;
77466;SDS011;66564;42.482;25.548;2023-05-27T07:24:32;169.65;;;84.82;;
77466;SDS011;66564;42.482;25.548;2023-05-27T07:26:58;99.72;;;55.50;;
77466;SDS011;66564;42.482;25.548;2023-05-27T07:29:24;100.80;;;50.35;;
77466;SDS011;66564;42.482;25.548;2023-05-27T07:31:50;64.28;;;34.10;;
77466;SDS011;66564;42.482;25.548;2023-05-27T07:34:16;136.85;;;55.72;;
77466;SDS011;66564;42.482;25.548;2023-05-27T07:36:41;210.27;;;83.35;;
77466;SDS011;66564;42.482;25.548;2023-05-27T07:39:10;246.32;;;90.68;;
77466;SDS011;66564;42.482;25.548;2023-05-27T07:41:36;264.05;;;100.15;;
77466;SDS011;66564;42.482;25.548;2023-05-27T07:44:02;88.53;;;31.13;;
77466;SDS011;66564;42.482;25.548;2023-05-27T07:46:28;196.88;;;65.45;;
77466;SDS011;66564;42.482;25.548;2023-05-27T07:48:55;465.45;;;111.03;;
77466;SDS011;66564;42.482;25.548;2023-05-27T07:51:22;175.30;;;45.88;;
77466;SDS011;66564;42.482;25.548;2023-05-27T07:53:47;541.55;;;114.95;;
77466;SDS011;66564;42.482;25.548;2023-05-27T07:56:13;470.17;;;97.15;;
77466;SDS011;66564;42.482;25.548;2023-05-27T07:58:39;403.55;;;86.80;;
77466;SDS011;66564;42.482;25.548;2023-05-27T08:01:05;927.30;;;150.50;;
77466;SDS011;66564;42.482;25.548;2023-05-27T08:03:31;981.60;;;161.55;;
77466;SDS011;66564;42.482;25.548;2023-05-27T08:05:56;659.22;;;128.68;;
77466;SDS011;66564;42.482;25.548;2023-05-27T08:08:22;330.05;;;78.25;;
77466;SDS011;66564;42.482;25.548;2023-05-27T08:10:48;11.43;;;7.50;;
77466;SDS011;66564;42.482;25.548;2023-05-27T08:13:14;9.45;;;6.15;;
77466;SDS011;66564;42.482;25.548;2023-05-27T08:15:39;8.82;;;5.85;;
77466;SDS011;66564;42.482;25.548;2023-05-27T08:18:05;10.80;;;6.20;;
77466;SDS011;66564;42.482;25.548;2023-05-27T08:20:31;10.38;;;6.72;;
77466;SDS011;66564;42.482;25.548;2023-05-27T08:22:56;8.95;;;6.22;;
77466;SDS011;66564;42.482;25.548;2023-05-27T08:25:22;30.05;;;16.25;;
77466;SDS011;66564;42.482;25.548;2023-05-27T08:30:27;31.85;;;16.02;;
77466;SDS011;66564;42.482;25.548;2023-05-27T08:32:54;29.77;;;21.15;;
77466;SDS011;66564;42.482;25.548;2023-05-27T08:35:20;23.40;;;17.50;;
77466;SDS011;66564;42.482;25.548;2023-05-27T08:37:46;32.22;;;8.75;;
77466;SDS011;66564;42.482;25.548;2023-05-27T08:40:14;7.90;;;5.90;;
77466;SDS011;66564;42.482;25.548;2023-05-27T08:42:41;25.95;;;18.85;;
77466;SDS011;66564;42.482;25.548;2023-05-27T08:45:08;56.45;;;39.83;;
77466;SDS011;66564;42.482;25.548;2023-05-27T08:47:35;72.63;;;48.35;;
77466;SDS011;66564;42.482;25.548;2023-05-27T08:50:01;82.95;;;52.45;;
77466;SDS011;66564;42.482;25.548;2023-05-27T08:52:28;80.22;;;50.63;;
77466;SDS011;66564;42.482;25.548;2023-05-27T08:54:54;91.30;;;54.35;;
77466;SDS011;66564;42.482;25.548;2023-05-27T08:57:22;142.45;;;85.10;;
77466;SDS011;66564;42.482;25.548;2023-05-27T08:59:53;57.22;;;30.88;;
77466;SDS011;66564;42.482;25.548;2023-05-27T09:02:22;93.22;;;54.47;;
77466;SDS011;66564;42.482;25.548;2023-05-27T09:04:48;92.05;;;50.88;;
77466;SDS011;66564;42.482;25.548;2023-05-27T09:07:14;156.18;;;86.82;;
77466;SDS011;66564;42.482;25.548;2023-05-27T09:09:40;157.52;;;86.35;;
77466;SDS011;66564;42.482;25.548;2023-05-27T09:12:06;188.32;;;97.78;;
77466;SDS011;66564;42.482;25.548;2023-05-27T09:14:33;208.93;;;97.75;;
77466;SDS011;66564;42.482;25.548;2023-05-27T09:17:06;295.40;;;146.30;;
77466;SDS011;66564;42.482;25.548;2023-05-27T09:19:33;18.13;;;11.10;;
77466;SDS011;66564;42.482;25.548;2023-05-27T09:22:04;47.17;;;21.75;;
77466;SDS011;66564;42.482;25.548;2023-05-27T09:24:29;30.40;;;15.80;;
77466;SDS011;66564;42.482;25.548;2023-05-27T09:26:55;52.25;;;26.05;;
77466;SDS011;66564;42.482;25.548;2023-05-27T09:29:24;69.07;;;34.00;;
77466;SDS011;66564;42.482;25.548;2023-05-27T09:31:54;39.80;;;20.73;;
77466;SDS011;66564;42.482;25.548;2023-05-27T09:34:22;56.22;;;29.58;;
77466;SDS011;66564;42.482;25.548;2023-05-27T09:36:48;94.35;;;44.15;;
77466;SDS011;66564;42.482;25.548;2023-05-27T09:39:16;49.53;;;24.70;;
77466;SDS011;66564;42.482;25.548;2023-05-27T09:41:53;29.58;;;16.02;;
77466;SDS011;66564;42.482;25.548;2023-05-27T09:44:20;42.13;;;20.70;;
77466;SDS011;66564;42.482;25.548;2023-05-27T09:46:46;38.50;;;20.02;;
77466;SDS011;66564;42.482;25.548;2023-05-27T09:49:13;15.02;;;9.60;;
77466;SDS011;66564;42.482;25.548;2023-05-27T09:51:42;37.05;;;19.90;;
77466;SDS011;66564;42.482;25.548;2023-05-27T09:54:08;33.78;;;17.10;;
77466;SDS011;66564;42.482;25.548;2023-05-27T09:56:35;22.27;;;12.32;;
77466;SDS011;66564;42.482;25.548;2023-05-27T09:59:01;30.48;;;15.73;;
77466;SDS011;66564;42.482;25.548;2023-05-27T10:01:30;30.65;;;16.52;;
77466;SDS011;66564;42.482;25.548;2023-05-27T10:03:56;19.33;;;11.13;;
77466;SDS011;66564;42.482;25.548;2023-05-27T10:06:23;7.07;;;5.88;;
77466;SDS011;66564;42.482;25.548;2023-05-27T10:08:49;8.95;;;6.20;;
77466;SDS011;66564;42.482;25.548;2023-05-27T10:11:22;10.75;;;7.32;;
77466;SDS011;66564;42.482;25.548;2023-05-27T10:13:49;8.43;;;6.88;;
77466;SDS011;66564;42.482;25.548;2023-05-27T10:16:22;13.02;;;7.18;;
77466;SDS011;66564;42.482;25.548;2023-05-27T10:18:54;17.05;;;7.20;;
77466;SDS011;66564;42.482;25.548;2023-05-27T10:21:23;8.18;;;6.30;;
77466;SDS011;66564;42.482;25.548;2023-05-27T10:24:02;8.30;;;6.40;;
77466;SDS011;66564;42.482;25.548;2023-05-27T10:26:44;10.82;;;7.25;;
77466;SDS011;66564;42.482;25.548;2023-05-27T10:29:12;9.50;;;6.45;;
77466;SDS011;66564;42.482;25.548;2023-05-27T10:31:44;14.07;;;6.15;;
77466;SDS011;66564;42.482;25.548;2023-05-27T10:34:13;12.27;;;6.43;;
77466;SDS011;66564;42.482;25.548;2023-05-27T10:36:39;7.65;;;6.00;;
77466;SDS011;66564;42.482;25.548;2023-05-27T10:39:06;12.80;;;6.65;;
77466;SDS011;66564;42.482;25.548;2023-05-27T10:42:03;8.10;;;6.85;;
77466;SDS011;66564;42.482;25.548;2023-05-27T10:44:29;13.23;;;6.30;;
77466;SDS011;66564;42.482;25.548;2023-05-27T10:47:01;10.40;;;6.97;;
77466;SDS011;66564;42.482;25.548;2023-05-27T10:49:39;10.65;;;7.30;;
77466;SDS011;66564;42.482;25.548;2023-05-27T10:52:09;8.63;;;6.78;;
77466;SDS011;66564;42.482;25.548;2023-05-27T10:54:47;11.38;;;7.28;;
77466;SDS011;66564;42.482;25.548;2023-05-27T10:57:13;11.07;;;7.05;;
77466;SDS011;66564;42.482;25.548;2023-05-27T10:59:49;18.50;;;8.80;;
77466;SDS011;66564;42.482;25.548;2023-05-27T11:02:19;9.60;;;6.72;;
77466;SDS011;66564;42.482;25.548;2023-05-27T11:04:46;11.70;;;6.93;;
77466;SDS011;66564;42.482;25.548;2023-05-27T11:07:22;13.68;;;7.78;;
77466;SDS011;66564;42.482;25.548;2023-05-27T11:09:50;10.70;;;6.90;;
77466;SDS011;66564;42.482;25.548;2023-05-27T11:12:18;10.70;;;7.45;;
77466;SDS011;66564;42.482;25.548;2023-05-27T11:14:46;12.85;;;8.07;;
77466;SDS011;66564;42.482;25.548;2023-05-27T11:17:13;14.27;;;7.47;;
77466;SDS011;66564;42.482;25.548;2023-05-27T11:19:39;10.70;;;6.95;;
77466;SDS011;66564;42.482;25.548;2023-05-27T11:22:06;9.20;;;7.20;;
77466;SDS011;66564;42.482;25.548;2023-05-27T11:24:33;12.82;;;6.82;;
77466;SDS011;66564;42.482;25.548;2023-05-27T11:26:58;9.40;;;7.18;;
77466;SDS011;66564;42.482;25.548;2023-05-27T11:29:25;11.85;;;8.13;;
77466;SDS011;66564;42.482;25.548;2023-05-27T11:31:52;10.82;;;7.65;;
77466;SDS011;66564;42.482;25.548;2023-05-27T11:34:18;13.52;;;7.35;;
77466;SDS011;66564;42.482;25.548;2023-05-27T11:36:45;145.50;;;14.35;;
77466;SDS011;66564;42.482;25.548;2023-05-27T11:39:11;43.88;;;10.50;;
77466;SDS011;66564;42.482;25.548;2023-05-27T11:41:50;14.57;;;7.95;;
77466;SDS011;66564;42.482;25.548;2023-05-27T11:44:21;11.15;;;7.75;;
77466;SDS011;66564;42.482;25.548;2023-05-27T11:46:48;12.82;;;7.70;;
77466;SDS011;66564;42.482;25.548;2023-05-27T11:49:15;11.07;;;7.40;;
77466;SDS011;66564;42.482;25.548;2023-05-27T11:51:48;9.40;;;7.32;;
77466;SDS011;66564;42.482;25.548;2023-05-27T11:54:24;10.32;;;7.45;;
77466;SDS011;66564;42.482;25.548;2023-05-27T11:56:55;8.40;;;6.78;;
77466;SDS011;66564;42.482;25.548;2023-05-27T11:59:22;12.13;;;7.90;;
77466;SDS011;66564;42.482;25.548;2023-05-27T12:01:48;11.57;;;7.80;;
77466;SDS011;66564;42.482;25.548;2023-05-27T12:04:14;12.27;;;7.82;;
77466;SDS011;66564;42.482;25.548;2023-05-27T12:06:41;12.40;;;7.57;;
77466;SDS011;66564;42.482;25.548;2023-05-27T12:09:07;12.82;;;7.20;;
77466;SDS011;66564;42.482;25.548;2023-05-27T12:11:34;12.27;;;8.18;;
77466;SDS011;66564;42.482;25.548;2023-05-27T12:14:00;19.13;;;9.00;;
77466;SDS011;66564;42.482;25.548;2023-05-27T12:16:26;9.90;;;7.47;;
77466;SDS011;66564;42.482;25.548;2023-05-27T12:18:54;11.82;;;8.00;;
77466;SDS011;66564;42.482;25.548;2023-05-27T12:21:19;11.60;;;7.82;;
77466;SDS011;66564;42.482;25.548;2023-05-27T12:23:46;13.52;;;7.97;;
77466;SDS011;66564;42.482;25.548;2023-05-27T12:26:12;8.95;;;7.45;;
77466;SDS011;66564;42.482;25.548;2023-05-27T12:28:39;11.98;;;7.70;;
77466;SDS011;66564;42.482;25.548;2023-05-27T12:31:05;12.13;;;7.90;;
77466;SDS011;66564;42.482;25.548;2023-05-27T12:33:31;11.52;;;8.15;;
77466;SDS011;66564;42.482;25.548;2023-05-27T12:35:57;15.20;;;8.52;;
77466;SDS011;66564;42.482;25.548;2023-05-27T12:38:23;10.93;;;7.45;;
77466;SDS011;66564;42.482;25.548;2023-05-27T12:40:48;10.20;;;8.55;;
77466;SDS011;66564;42.482;25.548;2023-05-27T12:43:14;13.02;;;7.45;;
77466;SDS011;66564;42.482;25.548;2023-05-27T12:45:40;10.80;;;8.00;;
77466;SDS011;66564;42.482;25.548;2023-05-27T12:48:06;10.02;;;7.72;;
77466;SDS011;66564;42.482;25.548;2023-05-27T12:50:31;10.82;;;7.80;;
77466;SDS011;66564;42.482;25.548;2023-05-27T12:52:57;11.77;;;8.02;;
77466;SDS011;66564;42.482;25.548;2023-05-27T12:55:24;10.60;;;7.95;;
77466;SDS011;66564;42.482;25.548;2023-05-27T12:57:50;10.23;;;7.63;;
77466;SDS011;66564;42.482;25.548;2023-05-27T13:00:17;10.50;;;7.82;;
77466;SDS011;66564;42.482;25.548;2023-05-27T13:02:47;11.57;;;7.57;;
77466;SDS011;66564;42.482;25.548;2023-05-27T13:05:17;11.80;;;7.63;;
77466;SDS011;66564;42.482;25.548;2023-05-27T13:07:56;9.50;;;7.47;;
77466;SDS011;66564;42.482;25.548;2023-05-27T13:10:35;9.95;;;7.88;;
77466;SDS011;66564;42.482;25.548;2023-05-27T13:13:23;11.18;;;7.88;;
77466;SDS011;66564;42.482;25.548;2023-05-27T13:15:49;9.25;;;7.60;;
77466;SDS011;66564;42.482;25.548;2023-05-27T13:18:15;9.52;;;7.78;;
77466;SDS011;66564;42.482;25.548;2023-05-27T13:20:40;12.25;;;7.43;;
77466;SDS011;66564;42.482;25.548;2023-05-27T13:23:06;9.13;;;7.75;;
77466;SDS011;66564;42.482;25.548;2023-05-27T13:25:32;12.32;;;8.07;;
77466;SDS011;66564;42.482;25.548;2023-05-27T13:27:58;11.63;;;7.60;;
77466;SDS011;66564;42.482;25.548;2023-05-27T13:30:24;17.55;;;7.95;;
77466;SDS011;66564;42.482;25.548;2023-05-27T13:32:50;9.55;;;7.20;;
77466;SDS011;66564;42.482;25.548;2023-05-27T13:35:16;11.02;;;7.88;;
77466;SDS011;66564;42.482;25.548;2023-05-27T13:37:42;9.77;;;7.35;;
77466;SDS011;66564;42.482;25.548;2023-05-27T13:40:08;12.38;;;8.15;;
77466;SDS011;66564;42.482;25.548;2023-05-27T13:42:35;11.95;;;8.40;;
77466;SDS011;66564;42.482;25.548;2023-05-27T13:45:01;14.05;;;8.88;;
77466;SDS011;66564;42.482;25.548;2023-05-27T13:47:27;10.43;;;8.32;;
77466;SDS011;66564;42.482;25.548;2023-05-27T13:49:53;8.80;;;7.85;;
77466;SDS011;66564;42.482;25.548;2023-05-27T13:52:18;11.93;;;7.93;;
77466;SDS011;66564;42.482;25.548;2023-05-27T13:54:44;13.43;;;8.52;;
77466;SDS011;66564;42.482;25.548;2023-05-27T13:57:10;12.23;;;8.55;;
77466;SDS011;66564;42.482;25.548;2023-05-27T13:59:36;14.57;;;8.40;;
77466;SDS011;66564;42.482;25.548;2023-05-27T14:02:01;10.32;;;7.70;;
77466;SDS011;66564;42.482;25.548;2023-05-27T14:04:31;10.52;;;8.98;;
77466;SDS011;66564;42.482;25.548;2023-05-27T14:06:57;12.43;;;8.23;;
77466;SDS011;66564;42.482;25.548;2023-05-27T14:09:23;12.45;;;8.73;;
77466;SDS011;66564;42.482;25.548;2023-05-27T14:11:49;11.25;;;8.35;;
77466;SDS011;66564;42.482;25.548;2023-05-27T14:14:15;10.93;;;8.95;;
77466;SDS011;66564;42.482;25.548;2023-05-27T14:16:40;13.55;;;7.78;;
77466;SDS011;66564;42.482;25.548;2023-05-27T14:19:06;11.77;;;8.05;;
77466;SDS011;66564;42.482;25.548;2023-05-27T14:21:32;18.13;;;8.55;;
77466;SDS011;66564;42.482;25.548;2023-05-27T14:23:58;12.68;;;8.10;;
77466;SDS011;66564;42.482;25.548;2023-05-27T14:26:24;14.48;;;9.15;;
77466;SDS011;66564;42.482;25.548;2023-05-27T14:28:51;12.27;;;8.23;;
77466;SDS011;66564;42.482;25.548;2023-05-27T14:31:16;14.93;;;8.45;;